sensor_id;sensor_type;location;lat;lon;timestamp;P1;durP1;ratioP1;P2;durP2;ratioP2
21999;SDS011;11164;48.818;2.322;2023-03-01T00:02:00;8.63;;;5.35;;
21999;SDS011;11164;48.818;2.322;2023-03-01T00:04:26;9.50;;;5.78;;
21999;SDS011;11164;48.818;2.322;2023-03-01T00:06:52;10.60;;;6.00;;
21999;SDS011;11164;48.818;2.322;2023-03-01T00:09:18;10.35;;;5.78;;
21999;SDS011;11164;48.818;2.322;2023-03-01T00:11:43;10.18;;;5.13;;
21999;SDS011;11164;48.818;2.322;2023-03-01T00:14:09;10.18;;;5.90;;
21999;SDS011;11164;48.818;2.322;2023-03-01T00:16:39;12.95;;;6.15;;
21999;SDS011;11164;48.818;2.322;2023-03-01T00:19:06;9.40;;;5.50;;
21999;SDS011;11164;48.818;2.322;2023-03-01T00:21:33;10.73;;;5.95;;
21999;SDS011;11164;48.818;2.322;2023-03-01T00:24:00;11.25;;;5.30;;
21999;SDS011;11164;48.818;2.322;2023-03-01T00:26:26;8.77;;;4.88;;
21999;SDS011;11164;48.818;2.322;2023-03-01T00:28:52;8.63;;;5.38;;
21999;SDS011;11164;48.818;2.322;2023-03-01T00:31:19;9.43;;;5.20;;
21999;SDS011;11164;48.818;2.322;2023-03-01T00:33:51;9.85;;;5.35;;
21999;SDS011;11164;48.818;2.322;2023-03-01T00:36:22;9.88;;;5.38;;
21999;SDS011;11164;48.818;2.322;2023-03-01T00:38:48;9.95;;;5.80;;
21999;SDS011;11164;48.818;2.322;2023-03-01T00:41:15;9.43;;;5.18;;
21999;SDS011;11164;48.818;2.322;2023-03-01T00:43:43;9.55;;;6.00;;
21999;SDS011;11164;48.818;2.322;2023-03-01T00:46:10;10.85;;;6.05;;
21999;SDS011;11164;48.818;2.322;2023-03-01T00:48:40;9.85;;;6.13;;
21999;SDS011;11164;48.818;2.322;2023-03-01T00:51:06;12.02;;;5.85;;
21999;SDS011;11164;48.818;2.322;2023-03-01T00:53:36;11.27;;;5.65;;
21999;SDS011;11164;48.818;2.322;2023-03-01T00:56:02;8.57;;;5.40;;
21999;SDS011;11164;48.818;2.322;2023-03-01T00:58:29;9.48;;;5.25;;
21999;SDS011;11164;48.818;2.322;2023-03-01T01:00:55;9.40;;;6.05;;
21999;SDS011;11164;48.818;2.322;2023-03-01T01:03:20;10.52;;;6.00;;
21999;SDS011;11164;48.818;2.322;2023-03-01T01:05:46;11.13;;;6.22;;
21999;SDS011;11164;48.818;2.322;2023-03-01T01:08:12;10.40;;;5.68;;
21999;SDS011;11164;48.818;2.322;2023-03-01T01:10:37;10.63;;;6.00;;
21999;SDS011;11164;48.818;2.322;2023-03-01T01:13:03;10.13;;;5.82;;
21999;SDS011;11164;48.818;2.322;2023-03-01T01:15:28;10.10;;;5.82;;
21999;SDS011;11164;48.818;2.322;2023-03-01T01:17:57;8.98;;;5.68;;
21999;SDS011;11164;48.818;2.322;2023-03-01T01:20:23;11.23;;;5.75;;
21999;SDS011;11164;48.818;2.322;2023-03-01T01:22:48;11.77;;;6.25;;
21999;SDS011;11164;48.818;2.322;2023-03-01T01:25:13;14.25;;;6.22;;
21999;SDS011;11164;48.818;2.322;2023-03-01T01:27:39;11.48;;;5.97;;
21999;SDS011;11164;48.818;2.322;2023-03-01T01:30:04;9.93;;;5.72;;
21999;SDS011;11164;48.818;2.322;2023-03-01T01:32:30;13.82;;;5.97;;
21999;SDS011;11164;48.818;2.322;2023-03-01T01:34:55;9.93;;;5.75;;
21999;SDS011;11164;48.818;2.322;2023-03-01T01:37:21;11.93;;;6.55;;
21999;SDS011;11164;48.818;2.322;2023-03-01T01:39:47;12.15;;;6.07;;
21999;SDS011;11164;48.818;2.322;2023-03-01T01:42:14;9.57;;;6.38;;
21999;SDS011;11164;48.818;2.322;2023-03-01T01:44:42;11.60;;;5.93;;
21999;SDS011;11164;48.818;2.322;2023-03-01T01:47:14;11.82;;;6.32;;
21999;SDS011;11164;48.818;2.322;2023-03-01T01:49:56;10.88;;;5.75;;
21999;SDS011;11164;48.818;2.322;2023-03-01T01:52:24;9.35;;;5.88;;
21999;SDS011;11164;48.818;2.322;2023-03-01T01:57:37;9.77;;;5.82;;
21999;SDS011;11164;48.818;2.322;2023-03-01T02:00:15;11.95;;;6.70;;
21999;SDS011;11164;48.818;2.322;2023-03-01T02:02:43;10.93;;;6.07;;
21999;SDS011;11164;48.818;2.322;2023-03-01T02:07:39;10.90;;;5.82;;
21999;SDS011;11164;48.818;2.322;2023-03-01T02:10:06;9.77;;;5.80;;
21999;SDS011;11164;48.818;2.322;2023-03-01T02:12:32;12.27;;;6.03;;
21999;SDS011;11164;48.818;2.322;2023-03-01T02:14:59;10.77;;;5.78;;
21999;SDS011;11164;48.818;2.322;2023-03-01T02:17:25;10.18;;;5.68;;
21999;SDS011;11164;48.818;2.322;2023-03-01T02:22:44;7.88;;;3.75;;
21999;SDS011;11164;48.818;2.322;2023-03-01T02:30:28;13.25;;;6.43;;
21999;SDS011;11164;48.818;2.322;2023-03-01T02:32:56;10.25;;;6.03;;
21999;SDS011;11164;48.818;2.322;2023-03-01T02:35:34;12.93;;;7.88;;
21999;SDS011;11164;48.818;2.322;2023-03-01T02:38:02;10.15;;;5.90;;
21999;SDS011;11164;48.818;2.322;2023-03-01T02:40:31;9.77;;;5.47;;
21999;SDS011;11164;48.818;2.322;2023-03-01T02:43:00;11.88;;;6.30;;
21999;SDS011;11164;48.818;2.322;2023-03-01T02:45:28;11.65;;;6.35;;
21999;SDS011;11164;48.818;2.322;2023-03-01T02:47:54;10.48;;;6.22;;
21999;SDS011;11164;48.818;2.322;2023-03-01T02:53:01;9.63;;;5.75;;
21999;SDS011;11164;48.818;2.322;2023-03-01T02:55:33;15.45;;;6.32;;
21999;SDS011;11164;48.818;2.322;2023-03-01T02:57:58;11.70;;;6.28;;
21999;SDS011;11164;48.818;2.322;2023-03-01T03:00:28;10.43;;;5.72;;
21999;SDS011;11164;48.818;2.322;2023-03-01T03:02:59;9.98;;;5.63;;
21999;SDS011;11164;48.818;2.322;2023-03-01T03:05:25;13.63;;;7.05;;
21999;SDS011;11164;48.818;2.322;2023-03-01T03:07:53;12.25;;;6.53;;
21999;SDS011;11164;48.818;2.322;2023-03-01T03:10:20;9.98;;;6.15;;
21999;SDS011;11164;48.818;2.322;2023-03-01T03:12:55;12.57;;;6.45;;
21999;SDS011;11164;48.818;2.322;2023-03-01T03:15:22;11.05;;;6.28;;
21999;SDS011;11164;48.818;2.322;2023-03-01T03:17:48;14.55;;;6.20;;
21999;SDS011;11164;48.818;2.322;2023-03-01T03:20:15;12.68;;;6.90;;
21999;SDS011;11164;48.818;2.322;2023-03-01T03:22:44;12.02;;;6.63;;
21999;SDS011;11164;48.818;2.322;2023-03-01T03:25:11;12.48;;;7.78;;
21999;SDS011;11164;48.818;2.322;2023-03-01T03:27:37;14.23;;;7.72;;
21999;SDS011;11164;48.818;2.322;2023-03-01T03:30:04;12.02;;;6.65;;
21999;SDS011;11164;48.818;2.322;2023-03-01T03:32:37;10.68;;;6.25;;
21999;SDS011;11164;48.818;2.322;2023-03-01T03:35:03;11.82;;;6.47;;
21999;SDS011;11164;48.818;2.322;2023-03-01T03:37:35;15.38;;;6.43;;
21999;SDS011;11164;48.818;2.322;2023-03-01T03:40:20;12.52;;;6.55;;
21999;SDS011;11164;48.818;2.322;2023-03-01T03:42:46;12.02;;;7.13;;
21999;SDS011;11164;48.818;2.322;2023-03-01T03:45:11;12.13;;;6.07;;
21999;SDS011;11164;48.818;2.322;2023-03-01T03:47:37;13.27;;;7.20;;
21999;SDS011;11164;48.818;2.322;2023-03-01T03:50:02;12.63;;;7.45;;
21999;SDS011;11164;48.818;2.322;2023-03-01T03:52:27;11.93;;;7.20;;
21999;SDS011;11164;48.818;2.322;2023-03-01T03:54:53;11.45;;;6.43;;
21999;SDS011;11164;48.818;2.322;2023-03-01T03:57:18;12.68;;;6.85;;
21999;SDS011;11164;48.818;2.322;2023-03-01T03:59:43;12.75;;;7.00;;
21999;SDS011;11164;48.818;2.322;2023-03-01T04:02:09;12.68;;;7.18;;
21999;SDS011;11164;48.818;2.322;2023-03-01T04:04:34;12.45;;;6.80;;
21999;SDS011;11164;48.818;2.322;2023-03-01T04:06:59;13.30;;;6.72;;
21999;SDS011;11164;48.818;2.322;2023-03-01T04:09:25;12.07;;;6.68;;
21999;SDS011;11164;48.818;2.322;2023-03-01T04:11:50;14.70;;;6.80;;
21999;SDS011;11164;48.818;2.322;2023-03-01T04:14:15;13.68;;;7.65;;
21999;SDS011;11164;48.818;2.322;2023-03-01T04:16:41;13.13;;;7.28;;
21999;SDS011;11164;48.818;2.322;2023-03-01T04:19:06;11.57;;;7.18;;
21999;SDS011;11164;48.818;2.322;2023-03-01T04:21:31;14.93;;;7.47;;
21999;SDS011;11164;48.818;2.322;2023-03-01T04:23:57;11.75;;;6.78;;
21999;SDS011;11164;48.818;2.322;2023-03-01T04:26:22;13.25;;;6.95;;
21999;SDS011;11164;48.818;2.322;2023-03-01T04:28:47;12.20;;;7.00;;
21999;SDS011;11164;48.818;2.322;2023-03-01T04:31:16;14.52;;;7.75;;
21999;SDS011;11164;48.818;2.322;2023-03-01T04:33:47;13.23;;;7.00;;
21999;SDS011;11164;48.818;2.322;2023-03-01T04:36:15;12.45;;;6.60;;
21999;SDS011;11164;48.818;2.322;2023-03-01T04:38:41;13.93;;;7.47;;
21999;SDS011;11164;48.818;2.322;2023-03-01T04:41:08;13.75;;;7.18;;
21999;SDS011;11164;48.818;2.322;2023-03-01T04:43:35;16.38;;;7.57;;
21999;SDS011;11164;48.818;2.322;2023-03-01T04:46:12;11.50;;;7.22;;
21999;SDS011;11164;48.818;2.322;2023-03-01T04:48:39;11.00;;;6.10;;
21999;SDS011;11164;48.818;2.322;2023-03-01T04:51:06;12.38;;;7.30;;
21999;SDS011;11164;48.818;2.322;2023-03-01T04:53:32;10.38;;;6.28;;
21999;SDS011;11164;48.818;2.322;2023-03-01T04:55:58;8.95;;;5.25;;
21999;SDS011;11164;48.818;2.322;2023-03-01T04:58:24;14.63;;;7.25;;
21999;SDS011;11164;48.818;2.322;2023-03-01T05:00:51;12.18;;;7.00;;
21999;SDS011;11164;48.818;2.322;2023-03-01T05:03:17;12.65;;;7.78;;
21999;SDS011;11164;48.818;2.322;2023-03-01T05:05:43;12.23;;;7.38;;
21999;SDS011;11164;48.818;2.322;2023-03-01T05:08:09;10.90;;;5.75;;
21999;SDS011;11164;48.818;2.322;2023-03-01T05:10:42;15.38;;;7.47;;
21999;SDS011;11164;48.818;2.322;2023-03-01T05:13:09;10.52;;;6.50;;
21999;SDS011;11164;48.818;2.322;2023-03-01T05:15:34;15.55;;;7.53;;
21999;SDS011;11164;48.818;2.322;2023-03-01T05:18:01;16.52;;;7.40;;
21999;SDS011;11164;48.818;2.322;2023-03-01T05:20:28;13.38;;;7.15;;
21999;SDS011;11164;48.818;2.322;2023-03-01T05:22:55;11.90;;;7.28;;
21999;SDS011;11164;48.818;2.322;2023-03-01T05:25:23;12.80;;;7.43;;
21999;SDS011;11164;48.818;2.322;2023-03-01T05:27:48;12.55;;;7.15;;
21999;SDS011;11164;48.818;2.322;2023-03-01T05:30:14;19.15;;;7.35;;
21999;SDS011;11164;48.818;2.322;2023-03-01T05:32:50;13.75;;;7.93;;
21999;SDS011;11164;48.818;2.322;2023-03-01T05:35:20;12.30;;;7.75;;
21999;SDS011;11164;48.818;2.322;2023-03-01T05:37:47;12.85;;;7.85;;
21999;SDS011;11164;48.818;2.322;2023-03-01T05:40:14;14.93;;;7.82;;
21999;SDS011;11164;48.818;2.322;2023-03-01T05:42:43;13.07;;;7.78;;
21999;SDS011;11164;48.818;2.322;2023-03-01T05:45:09;13.50;;;7.68;;
21999;SDS011;11164;48.818;2.322;2023-03-01T05:47:35;13.07;;;7.38;;
21999;SDS011;11164;48.818;2.322;2023-03-01T05:50:00;13.15;;;7.63;;
21999;SDS011;11164;48.818;2.322;2023-03-01T05:52:26;11.73;;;6.97;;
21999;SDS011;11164;48.818;2.322;2023-03-01T05:54:51;13.02;;;7.43;;
21999;SDS011;11164;48.818;2.322;2023-03-01T05:57:17;12.85;;;7.55;;
21999;SDS011;11164;48.818;2.322;2023-03-01T05:59:42;13.32;;;6.78;;
21999;SDS011;11164;48.818;2.322;2023-03-01T06:02:07;14.82;;;7.55;;
21999;SDS011;11164;48.818;2.322;2023-03-01T06:04:33;13.70;;;8.10;;
21999;SDS011;11164;48.818;2.322;2023-03-01T06:06:58;13.20;;;7.25;;
21999;SDS011;11164;48.818;2.322;2023-03-01T06:09:23;15.32;;;8.13;;
21999;SDS011;11164;48.818;2.322;2023-03-01T06:11:50;13.10;;;6.47;;
21999;SDS011;11164;48.818;2.322;2023-03-01T06:14:16;14.05;;;8.38;;
21999;SDS011;11164;48.818;2.322;2023-03-01T06:16:41;15.25;;;8.38;;
21999;SDS011;11164;48.818;2.322;2023-03-01T06:19:07;13.70;;;7.80;;
21999;SDS011;11164;48.818;2.322;2023-03-01T06:21:32;12.90;;;8.18;;
21999;SDS011;11164;48.818;2.322;2023-03-01T06:23:57;13.25;;;8.57;;
21999;SDS011;11164;48.818;2.322;2023-03-01T06:26:23;16.10;;;8.07;;
21999;SDS011;11164;48.818;2.322;2023-03-01T06:28:48;17.85;;;9.23;;
21999;SDS011;11164;48.818;2.322;2023-03-01T06:31:13;13.43;;;7.75;;
21999;SDS011;11164;48.818;2.322;2023-03-01T06:33:39;15.75;;;9.07;;
21999;SDS011;11164;48.818;2.322;2023-03-01T06:36:04;18.83;;;9.05;;
21999;SDS011;11164;48.818;2.322;2023-03-01T06:38:30;18.67;;;9.65;;
21999;SDS011;11164;48.818;2.322;2023-03-01T06:40:56;16.02;;;9.50;;
21999;SDS011;11164;48.818;2.322;2023-03-01T06:43:21;15.95;;;9.43;;
21999;SDS011;11164;48.818;2.322;2023-03-01T06:45:48;15.60;;;8.82;;
21999;SDS011;11164;48.818;2.322;2023-03-01T06:48:13;19.40;;;10.20;;
21999;SDS011;11164;48.818;2.322;2023-03-01T06:50:39;17.75;;;10.18;;
21999;SDS011;11164;48.818;2.322;2023-03-01T06:53:04;15.80;;;7.60;;
21999;SDS011;11164;48.818;2.322;2023-03-01T06:55:30;16.27;;;9.57;;
21999;SDS011;11164;48.818;2.322;2023-03-01T06:57:59;14.07;;;8.30;;
21999;SDS011;11164;48.818;2.322;2023-03-01T07:00:26;17.02;;;9.70;;
21999;SDS011;11164;48.818;2.322;2023-03-01T07:02:51;17.88;;;10.52;;
21999;SDS011;11164;48.818;2.322;2023-03-01T07:05:17;16.55;;;10.52;;
21999;SDS011;11164;48.818;2.322;2023-03-01T07:07:43;18.90;;;9.95;;
21999;SDS011;11164;48.818;2.322;2023-03-01T07:10:09;17.65;;;9.30;;
21999;SDS011;11164;48.818;2.322;2023-03-01T07:12:34;14.95;;;9.75;;
21999;SDS011;11164;48.818;2.322;2023-03-01T07:15:00;20.67;;;10.90;;
21999;SDS011;11164;48.818;2.322;2023-03-01T07:17:25;20.70;;;10.02;;
21999;SDS011;11164;48.818;2.322;2023-03-01T07:19:51;18.05;;;10.30;;
21999;SDS011;11164;48.818;2.322;2023-03-01T07:22:16;17.13;;;10.38;;
21999;SDS011;11164;48.818;2.322;2023-03-01T07:24:42;16.27;;;9.85;;
21999;SDS011;11164;48.818;2.322;2023-03-01T07:27:08;19.75;;;10.77;;
21999;SDS011;11164;48.818;2.322;2023-03-01T07:29:34;16.05;;;9.90;;
21999;SDS011;11164;48.818;2.322;2023-03-01T07:32:01;16.73;;;8.88;;
21999;SDS011;11164;48.818;2.322;2023-03-01T07:34:27;19.73;;;10.63;;
21999;SDS011;11164;48.818;2.322;2023-03-01T07:36:52;19.15;;;10.30;;
21999;SDS011;11164;48.818;2.322;2023-03-01T07:39:18;18.92;;;10.40;;
21999;SDS011;11164;48.818;2.322;2023-03-01T07:41:43;16.25;;;10.30;;
21999;SDS011;11164;48.818;2.322;2023-03-01T07:44:08;19.02;;;11.02;;
21999;SDS011;11164;48.818;2.322;2023-03-01T07:46:34;21.05;;;12.18;;
21999;SDS011;11164;48.818;2.322;2023-03-01T07:48:59;21.55;;;11.80;;
21999;SDS011;11164;48.818;2.322;2023-03-01T07:51:24;20.80;;;11.43;;
21999;SDS011;11164;48.818;2.322;2023-03-01T07:53:50;21.48;;;11.65;;
21999;SDS011;11164;48.818;2.322;2023-03-01T07:56:15;19.30;;;10.57;;
21999;SDS011;11164;48.818;2.322;2023-03-01T07:58:43;20.42;;;11.38;;
21999;SDS011;11164;48.818;2.322;2023-03-01T08:01:10;21.17;;;12.77;;
21999;SDS011;11164;48.818;2.322;2023-03-01T08:03:40;22.45;;;12.70;;
21999;SDS011;11164;48.818;2.322;2023-03-01T08:06:07;20.23;;;12.07;;
21999;SDS011;11164;48.818;2.322;2023-03-01T08:08:34;18.58;;;11.32;;
21999;SDS011;11164;48.818;2.322;2023-03-01T08:11:01;19.13;;;11.10;;
21999;SDS011;11164;48.818;2.322;2023-03-01T08:13:28;17.40;;;11.13;;
21999;SDS011;11164;48.818;2.322;2023-03-01T08:15:54;22.75;;;11.18;;
21999;SDS011;11164;48.818;2.322;2023-03-01T08:18:19;22.42;;;11.90;;
21999;SDS011;11164;48.818;2.322;2023-03-01T08:20:46;21.88;;;12.68;;
21999;SDS011;11164;48.818;2.322;2023-03-01T08:23:11;20.15;;;11.98;;
21999;SDS011;11164;48.818;2.322;2023-03-01T08:25:37;20.27;;;11.48;;
21999;SDS011;11164;48.818;2.322;2023-03-01T08:28:03;19.83;;;11.00;;
21999;SDS011;11164;48.818;2.322;2023-03-01T08:30:28;17.35;;;11.45;;
21999;SDS011;11164;48.818;2.322;2023-03-01T08:32:54;22.60;;;12.77;;
21999;SDS011;11164;48.818;2.322;2023-03-01T08:35:20;20.88;;;12.00;;
21999;SDS011;11164;48.818;2.322;2023-03-01T08:37:46;20.45;;;12.45;;
21999;SDS011;11164;48.818;2.322;2023-03-01T08:40:12;20.05;;;11.07;;
21999;SDS011;11164;48.818;2.322;2023-03-01T08:42:38;19.98;;;12.15;;
21999;SDS011;11164;48.818;2.322;2023-03-01T08:45:04;22.90;;;11.85;;
21999;SDS011;11164;48.818;2.322;2023-03-01T08:47:30;22.27;;;12.32;;
21999;SDS011;11164;48.818;2.322;2023-03-01T08:49:55;18.00;;;11.38;;
21999;SDS011;11164;48.818;2.322;2023-03-01T08:52:21;19.25;;;10.50;;
21999;SDS011;11164;48.818;2.322;2023-03-01T08:54:47;20.23;;;11.43;;
21999;SDS011;11164;48.818;2.322;2023-03-01T08:57:13;22.80;;;12.85;;
21999;SDS011;11164;48.818;2.322;2023-03-01T08:59:39;20.55;;;12.25;;
21999;SDS011;11164;48.818;2.322;2023-03-01T09:02:08;19.20;;;11.57;;
21999;SDS011;11164;48.818;2.322;2023-03-01T09:04:37;21.63;;;11.85;;
21999;SDS011;11164;48.818;2.322;2023-03-01T09:07:03;21.15;;;11.88;;
21999;SDS011;11164;48.818;2.322;2023-03-01T09:09:28;21.17;;;12.30;;
21999;SDS011;11164;48.818;2.322;2023-03-01T09:11:54;19.55;;;10.93;;
21999;SDS011;11164;48.818;2.322;2023-03-01T09:14:19;16.98;;;10.88;;
21999;SDS011;11164;48.818;2.322;2023-03-01T09:16:45;18.65;;;11.45;;
21999;SDS011;11164;48.818;2.322;2023-03-01T09:19:11;19.13;;;11.65;;
21999;SDS011;11164;48.818;2.322;2023-03-01T09:21:37;19.38;;;11.77;;
21999;SDS011;11164;48.818;2.322;2023-03-01T09:24:03;19.30;;;12.07;;
21999;SDS011;11164;48.818;2.322;2023-03-01T09:26:28;16.40;;;10.32;;
21999;SDS011;11164;48.818;2.322;2023-03-01T09:28:54;15.82;;;9.43;;
21999;SDS011;11164;48.818;2.322;2023-03-01T09:31:21;19.40;;;8.85;;
21999;SDS011;11164;48.818;2.322;2023-03-01T09:33:48;15.23;;;9.85;;
21999;SDS011;11164;48.818;2.322;2023-03-01T09:36:16;19.92;;;11.15;;
21999;SDS011;11164;48.818;2.322;2023-03-01T09:38:43;15.85;;;9.93;;
21999;SDS011;11164;48.818;2.322;2023-03-01T09:43:55;20.20;;;10.48;;
21999;SDS011;11164;48.818;2.322;2023-03-01T09:46:37;18.98;;;11.57;;
21999;SDS011;11164;48.818;2.322;2023-03-01T09:49:15;18.60;;;10.80;;
21999;SDS011;11164;48.818;2.322;2023-03-01T09:51:47;21.23;;;11.43;;
21999;SDS011;11164;48.818;2.322;2023-03-01T09:54:25;20.75;;;11.30;;
21999;SDS011;11164;48.818;2.322;2023-03-01T09:56:57;18.30;;;10.82;;
21999;SDS011;11164;48.818;2.322;2023-03-01T09:59:41;16.65;;;10.05;;
21999;SDS011;11164;48.818;2.322;2023-03-01T10:10:58;18.08;;;9.70;;
21999;SDS011;11164;48.818;2.322;2023-03-01T10:16:15;19.80;;;11.43;;
21999;SDS011;11164;48.818;2.322;2023-03-01T10:18:46;19.05;;;11.02;;
21999;SDS011;11164;48.818;2.322;2023-03-01T10:21:18;21.50;;;11.77;;
21999;SDS011;11164;48.818;2.322;2023-03-01T10:23:45;18.98;;;12.13;;
21999;SDS011;11164;48.818;2.322;2023-03-01T10:29:08;20.63;;;11.95;;
21999;SDS011;11164;48.818;2.322;2023-03-01T10:31:42;21.75;;;11.80;;
21999;SDS011;11164;48.818;2.322;2023-03-01T10:36:36;19.35;;;11.38;;
21999;SDS011;11164;48.818;2.322;2023-03-01T10:39:06;17.20;;;9.57;;
21999;SDS011;11164;48.818;2.322;2023-03-01T10:41:40;19.88;;;11.35;;
21999;SDS011;11164;48.818;2.322;2023-03-01T10:47:17;20.13;;;12.55;;
21999;SDS011;11164;48.818;2.322;2023-03-01T10:49:54;22.65;;;11.70;;
21999;SDS011;11164;48.818;2.322;2023-03-01T10:52:28;20.58;;;11.38;;
21999;SDS011;11164;48.818;2.322;2023-03-01T10:58:19;17.55;;;10.32;;
21999;SDS011;11164;48.818;2.322;2023-03-01T11:01:24;18.73;;;11.90;;
21999;SDS011;11164;48.818;2.322;2023-03-01T11:04:11;25.90;;;11.82;;
21999;SDS011;11164;48.818;2.322;2023-03-01T11:06:38;18.30;;;11.55;;
21999;SDS011;11164;48.818;2.322;2023-03-01T11:09:18;20.85;;;11.40;;
21999;SDS011;11164;48.818;2.322;2023-03-01T11:11:52;19.08;;;12.32;;
21999;SDS011;11164;48.818;2.322;2023-03-01T11:14:22;20.45;;;12.43;;
21999;SDS011;11164;48.818;2.322;2023-03-01T11:17:11;19.05;;;11.95;;
21999;SDS011;11164;48.818;2.322;2023-03-01T11:19:41;20.42;;;12.55;;
21999;SDS011;11164;48.818;2.322;2023-03-01T11:24:53;22.13;;;13.07;;
21999;SDS011;11164;48.818;2.322;2023-03-01T11:27:28;21.42;;;12.95;;
21999;SDS011;11164;48.818;2.322;2023-03-01T11:30:04;37.10;;;21.77;;
21999;SDS011;11164;48.818;2.322;2023-03-01T11:35:46;22.38;;;13.07;;
21999;SDS011;11164;48.818;2.322;2023-03-01T11:38:36;20.92;;;12.93;;
21999;SDS011;11164;48.818;2.322;2023-03-01T11:43:44;19.48;;;11.93;;
21999;SDS011;11164;48.818;2.322;2023-03-01T11:52:01;19.05;;;12.02;;
21999;SDS011;11164;48.818;2.322;2023-03-01T11:54:56;19.17;;;12.07;;
21999;SDS011;11164;48.818;2.322;2023-03-01T11:57:42;19.85;;;12.02;;
21999;SDS011;11164;48.818;2.322;2023-03-01T12:14:10;22.27;;;11.63;;
21999;SDS011;11164;48.818;2.322;2023-03-01T12:19:56;18.98;;;11.85;;
21999;SDS011;11164;48.818;2.322;2023-03-01T12:22:30;19.98;;;11.68;;
21999;SDS011;11164;48.818;2.322;2023-03-01T12:33:51;22.55;;;13.32;;
21999;SDS011;11164;48.818;2.322;2023-03-01T12:39:46;18.10;;;11.75;;
21999;SDS011;11164;48.818;2.322;2023-03-01T12:48:24;19.45;;;12.68;;
21999;SDS011;11164;48.818;2.322;2023-03-01T12:50:55;18.80;;;12.68;;
21999;SDS011;11164;48.818;2.322;2023-03-01T12:53:27;15.20;;;9.65;;
21999;SDS011;11164;48.818;2.322;2023-03-01T12:55:58;22.23;;;13.50;;
21999;SDS011;11164;48.818;2.322;2023-03-01T12:58:39;20.23;;;13.05;;
21999;SDS011;11164;48.818;2.322;2023-03-01T13:01:21;19.85;;;12.48;;
21999;SDS011;11164;48.818;2.322;2023-03-01T13:06:24;22.17;;;12.80;;
21999;SDS011;11164;48.818;2.322;2023-03-01T13:11:44;19.92;;;12.65;;
21999;SDS011;11164;48.818;2.322;2023-03-01T13:16:52;20.52;;;12.27;;
21999;SDS011;11164;48.818;2.322;2023-03-01T13:19:20;23.20;;;13.75;;
21999;SDS011;11164;48.818;2.322;2023-03-01T13:21:48;17.95;;;11.55;;
21999;SDS011;11164;48.818;2.322;2023-03-01T13:29:48;21.85;;;13.45;;
21999;SDS011;11164;48.818;2.322;2023-03-01T13:34:52;21.33;;;13.25;;
21999;SDS011;11164;48.818;2.322;2023-03-01T13:37:26;20.87;;;13.10;;
21999;SDS011;11164;48.818;2.322;2023-03-01T13:42:54;20.50;;;13.95;;
21999;SDS011;11164;48.818;2.322;2023-03-01T13:45:21;21.00;;;12.55;;
21999;SDS011;11164;48.818;2.322;2023-03-01T13:47:55;19.80;;;12.63;;
21999;SDS011;11164;48.818;2.322;2023-03-01T13:50:33;20.58;;;12.35;;
21999;SDS011;11164;48.818;2.322;2023-03-01T13:53:09;20.27;;;13.10;;
21999;SDS011;11164;48.818;2.322;2023-03-01T13:55:42;21.65;;;13.15;;
21999;SDS011;11164;48.818;2.322;2023-03-01T13:58:31;19.42;;;12.40;;
21999;SDS011;11164;48.818;2.322;2023-03-01T14:01:00;18.58;;;11.93;;
21999;SDS011;11164;48.818;2.322;2023-03-01T14:03:31;21.13;;;13.13;;
21999;SDS011;11164;48.818;2.322;2023-03-01T14:06:05;21.95;;;13.23;;
21999;SDS011;11164;48.818;2.322;2023-03-01T14:08:33;19.48;;;13.07;;
21999;SDS011;11164;48.818;2.322;2023-03-01T14:16:59;20.70;;;12.65;;
21999;SDS011;11164;48.818;2.322;2023-03-01T14:19:26;20.13;;;12.60;;
21999;SDS011;11164;48.818;2.322;2023-03-01T14:21:59;20.02;;;12.18;;
21999;SDS011;11164;48.818;2.322;2023-03-01T14:24:27;18.90;;;12.02;;
21999;SDS011;11164;48.818;2.322;2023-03-01T14:26:54;18.67;;;12.98;;
21999;SDS011;11164;48.818;2.322;2023-03-01T14:29:23;18.85;;;13.18;;
21999;SDS011;11164;48.818;2.322;2023-03-01T14:31:50;18.50;;;12.52;;
21999;SDS011;11164;48.818;2.322;2023-03-01T14:34:20;19.05;;;12.63;;
21999;SDS011;11164;48.818;2.322;2023-03-01T14:36:47;20.00;;;11.75;;
21999;SDS011;11164;48.818;2.322;2023-03-01T14:39:16;31.60;;;18.33;;
21999;SDS011;11164;48.818;2.322;2023-03-01T14:41:43;20.67;;;13.15;;
21999;SDS011;11164;48.818;2.322;2023-03-01T14:44:12;18.55;;;12.32;;
21999;SDS011;11164;48.818;2.322;2023-03-01T14:46:43;20.42;;;12.90;;
21999;SDS011;11164;48.818;2.322;2023-03-01T14:51:41;19.42;;;12.95;;
21999;SDS011;11164;48.818;2.322;2023-03-01T14:54:22;18.02;;;11.75;;
21999;SDS011;11164;48.818;2.322;2023-03-01T14:56:50;20.98;;;12.35;;
21999;SDS011;11164;48.818;2.322;2023-03-01T14:59:19;24.33;;;15.70;;
21999;SDS011;11164;48.818;2.322;2023-03-01T15:01:47;19.50;;;13.10;;
21999;SDS011;11164;48.818;2.322;2023-03-01T15:04:13;18.17;;;12.45;;
21999;SDS011;11164;48.818;2.322;2023-03-01T15:06:39;24.33;;;15.35;;
21999;SDS011;11164;48.818;2.322;2023-03-01T15:09:06;26.17;;;14.63;;
21999;SDS011;11164;48.818;2.322;2023-03-01T15:11:33;23.52;;;13.50;;
21999;SDS011;11164;48.818;2.322;2023-03-01T15:13:58;20.48;;;14.32;;
21999;SDS011;11164;48.818;2.322;2023-03-01T15:16:29;21.27;;;13.88;;
21999;SDS011;11164;48.818;2.322;2023-03-01T15:19:00;20.92;;;14.57;;
21999;SDS011;11164;48.818;2.322;2023-03-01T15:21:29;24.85;;;14.23;;
21999;SDS011;11164;48.818;2.322;2023-03-01T15:24:07;22.17;;;14.10;;
21999;SDS011;11164;48.818;2.322;2023-03-01T15:29:23;21.98;;;12.82;;
21999;SDS011;11164;48.818;2.322;2023-03-01T15:31:58;20.88;;;14.50;;
21999;SDS011;11164;48.818;2.322;2023-03-01T15:34:29;19.25;;;13.50;;
21999;SDS011;11164;48.818;2.322;2023-03-01T15:36:58;20.88;;;14.00;;
21999;SDS011;11164;48.818;2.322;2023-03-01T15:42:11;21.15;;;14.15;;
21999;SDS011;11164;48.818;2.322;2023-03-01T15:44:48;24.85;;;13.70;;
21999;SDS011;11164;48.818;2.322;2023-03-01T15:49:51;44.08;;;26.95;;
21999;SDS011;11164;48.818;2.322;2023-03-01T15:52:33;23.42;;;13.80;;
21999;SDS011;11164;48.818;2.322;2023-03-01T15:55:05;21.00;;;13.07;;
21999;SDS011;11164;48.818;2.322;2023-03-01T15:57:39;20.27;;;12.82;;
21999;SDS011;11164;48.818;2.322;2023-03-01T16:00:04;20.67;;;12.45;;
21999;SDS011;11164;48.818;2.322;2023-03-01T16:02:36;19.30;;;13.30;;
21999;SDS011;11164;48.818;2.322;2023-03-01T16:05:02;20.00;;;12.13;;
21999;SDS011;11164;48.818;2.322;2023-03-01T16:07:28;18.77;;;12.90;;
21999;SDS011;11164;48.818;2.322;2023-03-01T16:09:55;20.95;;;12.75;;
21999;SDS011;11164;48.818;2.322;2023-03-01T16:12:21;18.80;;;12.88;;
21999;SDS011;11164;48.818;2.322;2023-03-01T16:14:47;18.63;;;12.98;;
21999;SDS011;11164;48.818;2.322;2023-03-01T16:17:13;19.33;;;12.65;;
21999;SDS011;11164;48.818;2.322;2023-03-01T16:19:39;18.48;;;12.38;;
21999;SDS011;11164;48.818;2.322;2023-03-01T16:22:06;19.25;;;13.13;;
21999;SDS011;11164;48.818;2.322;2023-03-01T16:24:32;22.02;;;12.95;;
21999;SDS011;11164;48.818;2.322;2023-03-01T16:26:57;17.90;;;11.93;;
21999;SDS011;11164;48.818;2.322;2023-03-01T16:29:23;18.40;;;12.13;;
21999;SDS011;11164;48.818;2.322;2023-03-01T16:31:48;18.48;;;12.38;;
21999;SDS011;11164;48.818;2.322;2023-03-01T16:34:13;26.15;;;12.63;;
21999;SDS011;11164;48.818;2.322;2023-03-01T16:36:39;19.85;;;11.75;;
21999;SDS011;11164;48.818;2.322;2023-03-01T16:39:08;19.63;;;11.75;;
21999;SDS011;11164;48.818;2.322;2023-03-01T16:41:34;15.02;;;10.38;;
21999;SDS011;11164;48.818;2.322;2023-03-01T16:43:59;18.90;;;12.15;;